Aeroporto :
LOGIN :

Iscrizione | Disclaimer

   EN    FR    IT 

 










Sommario :    VFR   VFR Marginale   IFR   IFR Intensivo   IFR Molto Intensivo
Visibilità : 
Base nubi : 
>= 8 km
>= 3000ft
5 / 8 km
1000 / 3000 ft
1500m / 5 km
500 / 1000 ft
800 / 1500m
200 / 500 ft
< 800m
< 200 ft
Simboli :   Temporali  Nebbia  Neve Forte  Precipitazioni Forti  Vento > 20 kt
SIGMETs :   Varie  Temporali  Ghiacco  Turbolenza  Onda orograficha  Ceneri Vulcaniche







- Altitudine del aeroporto : 1504 ft
- Codice IATA : PNA


LEPP - Noain Pamplona

ULTIMO METAR :
  • 181530Z 36014KT 330V030 9999 SCT033 SCT050 09/02 Q1026

METARs OBSOLETI :
  • 181500Z 35017KT 320V020 9999 SCT033 SCT050 08/03 Q1026
  • 181430Z 31015KT 9999 SCT045 SCT055 08/04 Q1026
  • 181400Z 32014KT 290V360 9999 SCT045 SCT055 11/03 Q1026
  • 181330Z 31011KT 280V350 9999 SCT035 SCT045 10/03 Q1026
  • 181300Z 31014KT 280V340 9999 SCT035 SCT045 08/04 Q1027

TAF TAF LEPP
Valido dal 18 a 15 ore il 19 a 15 ore UTC


181400Z 1815/1915 34008KT 9999 SCT045 TX10/1915Z TN04/1907Z
PROB30
TEMPO 1815/1818 RA
TEMPO 1815/1820 33018KT
TEMPO 1900/1909 3000 RA BKN010
PROB30
TEMPO 1909/1915 RA
Nessun NOTAM noto per questo aeroporto.



MetMap, La meteo Aeronautica in un colpo d'occhio ! - Copyright ORBIFLY Dicembre 2007 - Disclaimer

ORBIFLY MET'MAP TEAM :

Programmazione e sviluppo : Alexandra Zaïnal
Concezione e sviluppo : Baudouin d'Aumeries
Co-Programmazione e sviluppo : Marc-Olivier Méhu
Supporto tecnico e logistico : Manuel Goepfert
Aiuto per la traduzione : Arnaldo La Scala

Contatto : metmap@orbifly.com




FONTI E CREDITI :

   NOAA